Time;durP1;ratioP1;P1;durP2;ratioP2;P2;SDS_P1;SDS_P2;PMS_P1;PMS_P2;Temp;Humidity;BMP_temperature;BMP_pressure;BME280_temperature;BME280_humidity;BME280_pressure;Samples;Min_cycle;Max_cycle;Signal;HPM_P1;HPM_P2
2024/01/10 00:01:18;;;;;;;7.38;3.67;;;-3.80;99.90;;;;;;5006448;28;20117;-62
2024/01/10 00:03:44;;;;;;;5.95;3.33;;;-3.80;99.90;;;;;;5009871;28;20447;-64
2024/01/10 00:06:12;;;;;;;5.88;3.20;;;-3.80;99.90;;;;;;5013180;28;20096;-64
2024/01/10 00:08:38;;;;;;;3.92;2.40;;;-3.90;99.90;;;;;;5014311;28;20029;-64
2024/01/10 00:11:04;;;;;;;4.07;2.22;;;-4.00;99.90;;;;;;5010351;28;20059;-64
2024/01/10 00:13:32;;;;;;;4.95;2.65;;;-4.10;99.90;;;;;;4959912;28;20046;-63
2024/01/10 00:15:58;;;;;;;2.72;1.85;;;-4.30;99.90;;;;;;4963611;28;20116;-63
2024/01/10 00:18:25;;;;;;;8.15;3.42;;;-4.30;99.90;;;;;;4968801;28;20031;-63
2024/01/10 00:20:53;;;;;;;6.45;3.38;;;-4.20;99.90;;;;;;4949654;28;20888;-62
2024/01/10 00:23:19;;;;;;;6.30;3.60;;;-4.20;99.90;;;;;;4970102;28;20038;-63
2024/01/10 00:25:45;;;;;;;6.53;3.75;;;-4.10;99.90;;;;;;4966087;28;20053;-64
2024/01/10 00:28:11;;;;;;;6.40;3.90;;;-4.00;99.90;;;;;;4970257;28;20522;-62
2024/01/10 00:30:38;;;;;;;7.78;4.65;;;-4.00;99.90;;;;;;4959716;28;20043;-67
2024/01/10 00:33:03;;;;;;;8.55;4.78;;;-4.00;99.90;;;;;;4966727;28;20023;-68
2024/01/10 00:35:29;;;;;;;8.75;4.50;;;-3.90;99.90;;;;;;4967350;28;20440;-68
2024/01/10 00:37:55;;;;;;;6.70;3.13;;;-3.90;99.90;;;;;;4964931;28;20473;-68
2024/01/10 00:40:20;;;;;;;5.95;2.90;;;-3.90;99.90;;;;;;4964189;28;20165;-68
2024/01/10 00:42:47;;;;;;;10.20;6.43;;;-3.90;99.90;;;;;;4964846;28;20055;-67
2024/01/10 00:45:13;;;;;;;12.43;6.32;;;-3.90;99.90;;;;;;4963758;28;20038;-69
2024/01/10 00:47:39;;;;;;;28.60;13.02;;;-3.90;99.90;;;;;;4962308;28;20039;-67
2024/01/10 00:50:05;;;;;;;25.48;11.80;;;-4.00;99.90;;;;;;4965721;28;20034;-63
2024/01/10 00:52:31;;;;;;;30.40;13.00;;;-3.90;99.90;;;;;;4965544;28;20043;-63
2024/01/10 00:54:58;;;;;;;22.98;13.40;;;-3.90;99.90;;;;;;4964275;28;20022;-63
2024/01/10 00:57:24;;;;;;;14.63;7.53;;;-3.90;99.90;;;;;;4961650;28;20069;-63
2024/01/10 00:59:50;;;;;;;14.57;7.30;;;-3.90;99.90;;;;;;4962381;28;20034;-63
2024/01/10 01:02:16;;;;;;;14.23;6.47;;;-4.00;99.90;;;;;;4967195;28;20030;-63
2024/01/10 01:04:42;;;;;;;8.00;4.00;;;-4.00;99.90;;;;;;4964723;28;20058;-63
2024/01/10 01:07:08;;;;;;;5.35;3.03;;;-4.00;99.90;;;;;;4965375;28;20150;-64
2024/01/10 01:09:35;;;;;;;4.45;2.28;;;-4.10;99.90;;;;;;4962794;28;20537;-63
2024/01/10 01:12:01;;;;;;;7.63;3.17;;;-4.20;99.90;;;;;;4966948;28;20073;-64
2024/01/10 01:14:27;;;;;;;7.57;3.60;;;-4.20;99.90;;;;;;4945230;28;20049;-63
2024/01/10 01:16:53;;;;;;;7.55;3.92;;;-4.30;99.90;;;;;;4964857;28;20113;-64
2024/01/10 01:19:20;;;;;;;7.05;4.15;;;-4.40;99.90;;;;;;4963970;28;20044;-64
2024/01/10 01:21:46;;;;;;;6.35;3.45;;;-4.30;99.90;;;;;;4962138;28;20065;-64
2024/01/10 01:24:12;;;;;;;10.32;5.72;;;-4.30;99.90;;;;;;4966809;28;20471;-68
2024/01/10 01:26:38;;;;;;;18.58;8.15;;;-4.30;99.90;;;;;;4964233;28;20041;-67
2024/01/10 01:29:03;;;;;;;16.45;7.88;;;-4.30;99.90;;;;;;4965587;28;20040;-67
2024/01/10 01:31:30;;;;;;;9.55;5.35;;;-4.30;99.90;;;;;;4947498;28;20065;-67
2024/01/10 01:33:56;;;;;;;8.52;4.82;;;-4.30;99.90;;;;;;4968547;28;20038;-67
2024/01/10 01:36:22;;;;;;;8.82;5.05;;;-4.30;99.90;;;;;;4964207;28;20114;-67
2024/01/10 01:38:48;;;;;;;13.65;6.38;;;-4.30;99.90;;;;;;4965912;28;20042;-67
2024/01/10 01:41:15;;;;;;;16.38;8.20;;;-4.30;99.90;;;;;;4966335;28;20519;-67
2024/01/10 01:43:41;;;;;;;16.95;8.60;;;-4.30;99.90;;;;;;4969212;28;20086;-64
2024/01/10 01:46:08;;;;;;;11.52;6.28;;;-4.30;99.90;;;;;;4965952;28;20038;-64
2024/01/10 01:48:35;;;;;;;13.65;6.60;;;-4.30;99.90;;;;;;4961737;28;20081;-63
2024/01/10 01:51:07;;;;;;;12.00;6.32;;;-4.30;99.90;;;;;;4942327;28;20737;-64
2024/01/10 01:53:36;;;;;;;;;;;-4.30;99.90;;;;;;4962975;28;20041;-64
2024/01/10 01:56:06;;;;;;;15.25;7.30;;;-4.40;99.90;;;;;;4965074;28;19924;-64
2024/01/10 01:58:50;;;;;;;10.98;6.28;;;-4.40;99.90;;;;;;4964940;28;20034;-63
2024/01/10 02:01:16;;;;;;;9.13;5.13;;;-4.50;99.90;;;;;;4963387;28;20046;-63
2024/01/10 02:03:42;;;;;;;12.05;6.40;;;-4.50;99.90;;;;;;4965034;28;20101;-63
2024/01/10 02:06:08;;;;;;;11.15;5.20;;;-4.50;99.90;;;;;;4964377;28;20057;-64
2024/01/10 02:08:35;;;;;;;12.10;6.47;;;-4.50;99.90;;;;;;4962505;28;20095;-63
2024/01/10 02:11:01;;;;;;;15.18;7.40;;;-4.50;99.90;;;;;;4959690;28;20113;-64
2024/01/10 02:13:28;;;;;;;12.68;6.43;;;-4.50;99.90;;;;;;4966351;28;20035;-64
2024/01/10 02:15:54;;;;;;;11.32;6.50;;;-4.50;99.90;;;;;;4964830;28;20039;-64
2024/01/10 02:18:20;;;;;;;13.95;7.03;;;-4.50;99.90;;;;;;4962300;28;20541;-63
2024/01/10 02:20:46;;;;;;;11.68;7.25;;;-4.50;99.90;;;;;;4963636;28;20066;-63
2024/01/10 02:23:12;;;;;;;13.65;8.65;;;-4.40;99.90;;;;;;4965657;28;20045;-64
2024/01/10 02:25:39;;;;;;;13.77;7.95;;;-4.50;99.90;;;;;;4967204;28;20030;-64
2024/01/10 02:28:05;;;;;;;15.75;7.95;;;-4.40;99.90;;;;;;4970254;28;20023;-64
2024/01/10 02:30:31;;;;;;;17.55;8.93;;;-4.40;99.90;;;;;;4967096;28;20026;-64
2024/01/10 02:32:57;;;;;;;15.13;8.32;;;-4.40;99.90;;;;;;4962794;28;20050;-64
2024/01/10 02:35:22;;;;;;;13.50;7.68;;;-4.40;99.90;;;;;;4966597;28;20038;-64
2024/01/10 02:37:51;;;;;;;13.68;6.97;;;-4.30;99.90;;;;;;4968747;28;20209;-63
2024/01/10 02:40:17;;;;;;;14.32;7.80;;;-4.30;99.90;;;;;;4964356;28;20022;-67
2024/01/10 02:42:42;;;;;;;14.27;7.95;;;-4.40;99.90;;;;;;4968828;28;20042;-66
2024/01/10 02:45:08;;;;;;;17.50;8.38;;;-4.40;99.90;;;;;;4971683;28;20576;-67
2024/01/10 02:47:34;;;;;;;18.13;9.40;;;-4.30;99.90;;;;;;4974646;28;20095;-67
2024/01/10 02:50:00;;;;;;;22.00;10.18;;;-4.30;99.90;;;;;;4968337;28;20470;-67
2024/01/10 02:52:25;;;;;;;17.25;9.93;;;-4.30;99.90;;;;;;4968014;28;20161;-67
2024/01/10 02:54:51;;;;;;;13.25;5.70;;;-4.30;99.90;;;;;;4969359;28;20088;-67
2024/01/10 02:57:16;;;;;;;11.25;5.43;;;-4.40;99.90;;;;;;4974557;28;20027;-64
2024/01/10 02:59:42;;;;;;;8.25;4.35;;;-4.50;99.90;;;;;;4972255;28;20384;-64
2024/01/10 03:02:08;;;;;;;9.20;3.95;;;-4.60;99.90;;;;;;4972766;28;20113;-63
2024/01/10 03:04:34;;;;;;;5.50;3.05;;;-4.60;99.90;;;;;;4973588;28;20882;-64
2024/01/10 03:06:59;;;;;;;5.60;3.00;;;-4.60;99.90;;;;;;4969323;28;20051;-64
2024/01/10 03:09:25;;;;;;;6.20;2.90;;;-4.70;99.90;;;;;;4962419;28;20030;-65
2024/01/10 03:11:50;;;;;;;7.18;3.55;;;-4.80;99.90;;;;;;4967353;28;20271;-64
2024/01/10 03:14:16;;;;;;;7.95;3.90;;;-4.90;99.90;;;;;;4953992;28;20053;-64
2024/01/10 03:16:42;;;;;;;7.38;4.35;;;-4.90;99.90;;;;;;4970382;28;20121;-64
2024/01/10 03:19:08;;;;;;;6.05;3.47;;;-5.00;99.90;;;;;;4974076;28;20041;-64
2024/01/10 03:21:33;;;;;;;9.25;4.15;;;-4.90;99.90;;;;;;4971797;28;20370;-64
2024/01/10 03:24:01;;;;;;;6.97;4.32;;;-4.90;99.90;;;;;;4971861;28;20027;-64
2024/01/10 03:26:27;;;;;;;9.25;5.35;;;-4.90;99.90;;;;;;4970630;28;20062;-64
2024/01/10 03:28:53;;;;;;;11.13;5.43;;;-4.90;99.90;;;;;;4971487;28;20027;-64
2024/01/10 03:31:19;;;;;;;9.90;5.00;;;-4.90;99.90;;;;;;4971885;28;20038;-64
2024/01/10 03:33:44;;;;;;;11.00;5.90;;;-4.80;99.90;;;;;;4973706;28;20060;-67
2024/01/10 03:36:16;;;;;;;12.52;5.97;;;-4.80;99.90;;;;;;4973867;28;20043;-68
2024/01/10 03:38:42;;;;;;;18.05;8.68;;;-4.70;99.90;;;;;;4969799;28;20030;-68
2024/01/10 03:41:12;;;;;;;15.55;7.70;;;-4.80;99.90;;;;;;4976531;28;20046;-67
2024/01/10 03:43:37;;;;;;;12.18;6.70;;;-4.80;99.90;;;;;;4988972;28;20018;-67
2024/01/10 03:46:03;;;;;;;12.10;6.93;;;-4.80;99.90;;;;;;4986262;28;20354;-67
2024/01/10 03:48:29;;;;;;;11.10;6.07;;;-4.80;99.90;;;;;;4981094;28;20076;-67
2024/01/10 03:50:54;;;;;;;13.13;6.80;;;-4.80;99.90;;;;;;4971800;28;20153;-64
2024/01/10 03:53:20;;;;;;;13.18;6.63;;;-4.80;99.90;;;;;;4971931;28;20533;-68
2024/01/10 03:55:45;;;;;;;12.52;7.18;;;-4.80;99.90;;;;;;4964519;28;20043;-67
2024/01/10 03:58:11;;;;;;;13.90;7.05;;;-4.80;99.90;;;;;;4969637;28;20026;-67
2024/01/10 04:00:36;;;;;;;13.45;8.15;;;-4.80;99.90;;;;;;4967134;28;20557;-67
2024/01/10 04:03:03;;;;;;;12.63;6.18;;;-4.70;99.90;;;;;;4971917;28;20181;-67
2024/01/10 04:05:29;;;;;;;11.38;5.93;;;-4.80;99.90;;;;;;4968884;28;20073;-67
2024/01/10 04:07:56;;;;;;;10.90;5.90;;;-4.80;99.90;;;;;;4969433;28;20054;-68
2024/01/10 04:10:22;;;;;;;9.40;5.60;;;-4.80;99.90;;;;;;4970111;28;20474;-67
2024/01/10 04:12:48;;;;;;;11.55;5.50;;;-4.80;99.90;;;;;;4971291;28;20041;-67
2024/01/10 04:15:14;;;;;;;11.32;6.93;;;-4.80;99.90;;;;;;4970953;28;20449;-67
2024/01/10 04:17:39;;;;;;;13.50;7.35;;;-4.80;99.90;;;;;;4968262;28;20039;-67
2024/01/10 04:20:06;;;;;;;12.60;7.20;;;-4.80;99.90;;;;;;4969584;28;20037;-67
2024/01/10 04:22:32;;;;;;;11.75;6.88;;;-4.80;99.90;;;;;;4966598;28;20081;-67
2024/01/10 04:24:59;;;;;;;15.57;8.88;;;-4.90;99.90;;;;;;4970636;28;20037;-67
2024/01/10 04:27:25;;;;;;;17.00;8.20;;;-4.90;99.90;;;;;;4972667;28;20094;-67
2024/01/10 04:29:50;;;;;;;15.13;8.75;;;-4.90;99.90;;;;;;4965654;28;20031;-64
2024/01/10 04:32:16;;;;;;;16.67;8.82;;;-4.90;99.90;;;;;;4955668;28;20035;-64
2024/01/10 04:34:42;;;;;;;16.05;8.70;;;-4.90;99.90;;;;;;4972132;28;20832;-63
2024/01/10 04:37:07;;;;;;;22.50;9.88;;;-4.80;99.90;;;;;;4969011;28;20118;-64
2024/01/10 04:39:34;;;;;;;16.33;8.70;;;-4.80;99.90;;;;;;4968675;28;20039;-64
2024/01/10 04:42:00;;;;;;;20.88;10.43;;;-4.80;99.90;;;;;;4967986;28;20034;-64
2024/01/10 04:44:26;;;;;;;20.80;10.75;;;-4.80;99.90;;;;;;4969769;28;20034;-64
2024/01/10 04:46:51;;;;;;;27.52;14.00;;;-4.80;99.90;;;;;;4968555;28;20039;-64
2024/01/10 04:49:17;;;;;;;30.45;15.68;;;-4.80;99.90;;;;;;4966473;28;20027;-67
2024/01/10 04:51:43;;;;;;;40.83;19.40;;;-4.70;99.90;;;;;;4968141;28;20053;-67
2024/01/10 04:54:08;;;;;;;23.40;13.35;;;-4.70;99.90;;;;;;4949668;28;20141;-67
2024/01/10 04:56:36;;;;;;;20.38;10.90;;;-4.80;99.90;;;;;;4964724;28;20038;-67
2024/01/10 04:59:02;;;;;;;17.20;8.90;;;-4.80;99.90;;;;;;4969578;28;20464;-67
2024/01/10 05:01:28;;;;;;;11.40;6.40;;;-4.90;99.90;;;;;;4964414;28;20057;-67
2024/01/10 05:03:53;;;;;;;13.05;6.45;;;-5.10;99.90;;;;;;4970578;28;20657;-67
2024/01/10 05:06:19;;;;;;;11.05;6.32;;;-5.20;99.90;;;;;;4969011;28;20126;-63
2024/01/10 05:08:45;;;;;;;12.00;6.50;;;-5.20;99.90;;;;;;4968243;28;20045;-64
2024/01/10 05:11:11;;;;;;;9.15;5.65;;;-5.10;99.90;;;;;;4970969;28;20049;-63
2024/01/10 05:13:36;;;;;;;13.68;6.90;;;-5.10;99.90;;;;;;4965387;28;20076;-64
2024/01/10 05:16:02;;;;;;;21.63;7.43;;;-5.00;99.90;;;;;;4972333;28;20567;-63
2024/01/10 05:18:28;;;;;;;15.50;7.15;;;-5.00;99.90;;;;;;4971344;28;20034;-64
2024/01/10 05:20:53;;;;;;;12.50;7.22;;;-5.10;99.90;;;;;;4969842;28;20460;-64
2024/01/10 05:23:19;;;;;;;16.95;7.65;;;-5.20;99.90;;;;;;4970422;28;20100;-64
2024/01/10 05:25:45;;;;;;;14.82;7.30;;;-5.20;99.90;;;;;;4970779;28;20042;-67
2024/01/10 05:28:11;;;;;;;15.38;7.82;;;-5.20;99.90;;;;;;4966986;28;20105;-67
2024/01/10 05:30:36;;;;;;;15.82;8.57;;;-5.20;99.90;;;;;;4965397;28;20077;-67
2024/01/10 05:33:02;;;;;;;14.45;7.93;;;-5.20;99.90;;;;;;4965122;28;20115;-66
2024/01/10 05:35:28;;;;;;;15.32;7.57;;;-5.20;99.90;;;;;;4970269;28;20403;-67
2024/01/10 05:37:54;;;;;;;14.65;7.63;;;-5.20;99.90;;;;;;4967432;28;20035;-67
2024/01/10 05:40:20;;;;;;;21.65;10.00;;;-5.10;99.90;;;;;;4974543;28;20030;-67
2024/01/10 05:42:46;;;;;;;20.17;11.00;;;-5.10;99.90;;;;;;4972861;28;20023;-67
2024/01/10 05:45:11;;;;;;;21.35;10.25;;;-5.20;99.90;;;;;;4967518;28;20109;-67
2024/01/10 05:47:47;;;;;;;18.05;10.27;;;-5.30;99.90;;;;;;4965873;28;20085;-66
2024/01/10 05:50:13;;;;;;;19.30;10.18;;;-5.30;99.90;;;;;;4983732;28;20467;-67
2024/01/10 05:52:39;;;;;;;18.83;11.00;;;-5.40;99.90;;;;;;4970516;28;20035;-67
2024/01/10 05:55:06;;;;;;;23.85;11.85;;;-5.30;99.90;;;;;;4968375;28;20495;-66
2024/01/10 05:57:32;;;;;;;24.40;12.73;;;-5.30;99.90;;;;;;4951559;28;20039;-66
2024/01/10 05:59:58;;;;;;;24.38;13.35;;;-5.20;99.90;;;;;;4969463;28;20022;-67
2024/01/10 06:02:24;;;;;;;35.97;16.15;;;-5.20;99.90;;;;;;4967807;28;20756;-67
2024/01/10 06:04:50;;;;;;;29.92;16.05;;;-5.10;99.90;;;;;;4966466;28;20058;-67
2024/01/10 06:07:16;;;;;;;35.85;17.20;;;-5.00;99.90;;;;;;4963197;28;20134;-68
2024/01/10 06:09:43;;;;;;;31.40;16.83;;;-5.00;99.90;;;;;;4965597;28;20062;-68
2024/01/10 06:12:09;;;;;;;28.80;15.27;;;-4.90;99.90;;;;;;4958978;28;20062;-68
2024/01/10 06:14:35;;;;;;;32.72;17.40;;;-4.90;99.90;;;;;;4961908;28;20025;-70
2024/01/10 06:17:01;;;;;;;29.67;15.75;;;-5.00;99.90;;;;;;4963298;28;20094;-70
2024/01/10 06:19:27;;;;;;;29.25;15.73;;;-5.00;99.90;;;;;;4963955;28;20081;-70
2024/01/10 06:21:52;;;;;;;19.60;11.68;;;-5.10;99.90;;;;;;4966555;28;20325;-70
2024/01/10 06:24:19;;;;;;;32.58;10.90;;;-5.10;99.90;;;;;;4967923;28;20022;-69
2024/01/10 06:26:44;;;;;;;20.27;10.25;;;-5.20;99.90;;;;;;4965115;28;20195;-70
2024/01/10 06:29:10;;;;;;;15.50;9.35;;;-5.30;99.90;;;;;;4962228;28;20538;-70
2024/01/10 06:31:35;;;;;;;15.23;8.82;;;-5.30;99.90;;;;;;4968603;28;20034;-70
2024/01/10 06:34:01;;;;;;;19.25;9.07;;;-5.30;99.90;;;;;;4964067;28;20030;-70
2024/01/10 06:36:27;;;;;;;15.02;8.73;;;-5.30;99.90;;;;;;4967662;28;20042;-70
2024/01/10 06:38:52;;;;;;;18.85;10.25;;;-5.20;99.90;;;;;;4967751;28;20070;-62
2024/01/10 06:41:24;;;;;;;15.15;9.23;;;-5.20;99.90;;;;;;4968483;28;20034;-62
2024/01/10 06:43:50;;;;;;;;;;;-5.20;99.90;;;;;;4975687;28;20026;-62
2024/01/10 06:46:16;;;;;;;17.55;10.50;;;-5.30;99.90;;;;;;4965880;28;20372;-62
2024/01/10 06:48:41;;;;;;;25.10;11.82;;;-5.20;99.90;;;;;;4972560;28;20096;-62
2024/01/10 06:51:12;;;;;;;20.77;12.82;;;-5.20;99.90;;;;;;4973137;28;20220;-62
2024/01/10 06:53:38;;;;;;;34.20;16.63;;;-5.10;99.90;;;;;;4975162;28;20034;-62
2024/01/10 06:56:04;;;;;;;36.05;15.88;;;-5.00;99.90;;;;;;4977280;28;20422;-70
2024/01/10 06:58:30;;;;;;;31.25;15.32;;;-5.00;99.90;;;;;;4972433;28;20045;-70
2024/01/10 07:00:55;;;;;;;38.67;18.08;;;-4.90;99.90;;;;;;4965527;28;20038;-69
2024/01/10 07:03:21;;;;;;;34.83;18.60;;;-4.90;99.90;;;;;;4970808;28;20034;-71
2024/01/10 07:05:46;;;;;;;37.25;17.40;;;-4.80;99.90;;;;;;4976003;28;20080;-69
2024/01/10 07:08:12;;;;;;;37.63;19.92;;;-4.80;99.90;;;;;;4967667;28;20093;-70
2024/01/10 07:10:38;;;;;;;27.88;14.60;;;-4.80;99.90;;;;;;4971114;28;20046;-70
2024/01/10 07:13:04;;;;;;;27.60;13.73;;;-4.80;99.90;;;;;;4971211;28;20485;-70
2024/01/10 07:15:30;;;;;;;22.88;13.30;;;-4.80;99.90;;;;;;4970864;28;20113;-69
2024/01/10 07:17:55;;;;;;;21.90;12.68;;;-4.80;99.90;;;;;;4969277;28;20065;-70
2024/01/10 07:20:23;;;;;;;22.75;12.40;;;-4.80;99.90;;;;;;4970374;28;20045;-70
2024/01/10 07:22:49;;;;;;;22.75;11.77;;;-4.80;99.90;;;;;;4969912;28;20042;-70
2024/01/10 07:25:15;;;;;;;25.73;12.02;;;-4.80;99.90;;;;;;4971519;28;20045;-70
2024/01/10 07:27:41;;;;;;;22.83;11.93;;;-4.80;99.90;;;;;;4971433;28;20502;-70
2024/01/10 07:30:13;;;;;;;26.73;14.02;;;-4.70;99.90;;;;;;4971810;28;20038;-70
2024/01/10 07:32:40;;;;;;;25.38;14.13;;;-4.50;99.90;;;;;;4969566;28;20038;-69
2024/01/10 07:35:09;;;;;;;22.92;12.57;;;-4.40;99.90;;;;;;4973159;28;20151;-62
2024/01/10 07:37:39;;;;;;;29.67;15.75;;;-4.30;99.90;;;;;;4970949;28;20042;-63
2024/01/10 07:40:06;;;;;;;26.20;15.05;;;-4.20;99.90;;;;;;4973580;28;20045;-63
2024/01/10 07:42:32;;;;;;;29.48;14.82;;;-4.00;99.90;;;;;;4971990;28;20042;-62
2024/01/10 07:44:58;;;;;;;31.10;16.25;;;-3.90;99.90;;;;;;4970623;28;20483;-63
2024/01/10 07:47:24;;;;;;;37.15;18.17;;;-3.80;99.90;;;;;;4970767;28;20060;-62
2024/01/10 07:49:49;;;;;;;30.95;16.02;;;-3.70;99.90;;;;;;4970880;28;20026;-62
2024/01/10 07:52:16;;;;;;;35.13;16.90;;;-3.50;99.90;;;;;;4972261;28;20031;-63
2024/01/10 07:54:42;;;;;;;30.65;16.38;;;-3.40;99.90;;;;;;4969048;28;20038;-63
2024/01/10 07:57:08;;;;;;;25.50;12.45;;;-3.30;99.90;;;;;;4969699;28;20034;-62
2024/01/10 07:59:33;;;;;;;16.63;8.07;;;-3.20;99.90;;;;;;4971074;28;20034;-63
2024/01/10 08:02:00;;;;;;;9.90;6.45;;;-2.90;99.90;;;;;;4957823;28;20108;-63
2024/01/10 08:04:26;;;;;;;9.30;5.97;;;-2.90;99.90;;;;;;4967769;28;20042;-63
2024/01/10 08:06:53;;;;;;;11.00;6.28;;;-2.70;99.90;;;;;;4975502;28;20455;-63
2024/01/10 08:09:19;;;;;;;10.50;5.65;;;-2.60;99.90;;;;;;4968542;28;20539;-63
2024/01/10 08:11:45;;;;;;;9.98;6.18;;;-2.40;99.90;;;;;;4968626;28;20102;-63
2024/01/10 08:14:11;;;;;;;10.88;6.60;;;-2.30;99.90;;;;;;4972030;28;20022;-63
2024/01/10 08:16:37;;;;;;;13.40;8.05;;;-2.00;99.90;;;;;;4970132;28;20513;-63
2024/01/10 08:19:02;;;;;;;12.13;6.35;;;-1.80;99.90;;;;;;4969903;28;20061;-70
2024/01/10 08:21:28;;;;;;;15.25;6.20;;;-1.80;99.90;;;;;;4966210;28;20518;-62
2024/01/10 08:23:53;;;;;;;19.98;6.32;;;-1.70;99.90;;;;;;4968863;28;20030;-62
2024/01/10 08:26:19;;;;;;;11.73;6.50;;;-1.50;99.90;;;;;;4970468;28;20049;-69
2024/01/10 08:28:44;;;;;;;9.48;5.82;;;-1.50;99.90;;;;;;4967643;28;20137;-70
2024/01/10 08:31:10;;;;;;;17.02;6.03;;;-1.40;99.90;;;;;;4969660;28;20041;-69
2024/01/10 08:33:36;;;;;;;16.35;9.88;;;-1.40;99.90;;;;;;4965893;28;20031;-69
2024/01/10 08:36:02;;;;;;;17.05;11.25;;;-1.30;99.90;;;;;;4963588;28;20688;-69
2024/01/10 08:38:27;;;;;;;20.80;13.93;;;-1.20;99.90;;;;;;4964890;28;20038;-70
2024/01/10 08:40:53;;;;;;;25.52;16.05;;;-1.20;99.90;;;;;;4968540;28;20049;-69
2024/01/10 08:43:18;;;;;;;26.02;16.95;;;-1.30;99.90;;;;;;4972277;28;20599;-69
2024/01/10 08:45:44;;;;;;;26.98;19.50;;;-1.60;99.90;;;;;;4948714;28;20081;-68
2024/01/10 08:48:11;;;;;;;45.47;22.27;;;-1.60;99.90;;;;;;4969747;28;20034;-69
2024/01/10 08:50:37;;;;;;;35.65;21.75;;;-1.40;99.90;;;;;;4972332;28;20050;-69
2024/01/10 08:53:05;;;;;;;37.30;22.38;;;-1.20;99.90;;;;;;4963849;28;20137;-68
2024/01/10 08:55:34;;;;;;;36.67;21.48;;;-0.90;99.90;;;;;;4958359;28;20023;-68
2024/01/10 08:57:59;;;;;;;42.15;21.13;;;-0.80;99.90;;;;;;4963010;28;20100;-69
2024/01/10 09:00:25;;;;;;;35.40;18.88;;;-0.60;99.90;;;;;;4960702;28;20415;-70
2024/01/10 09:02:52;;;;;;;43.13;22.63;;;-0.50;99.90;;;;;;4966507;28;20384;-63
2024/01/10 09:05:18;;;;;;;55.13;26.10;;;-0.30;99.90;;;;;;4965738;28;20073;-63
2024/01/10 09:07:43;;;;;;;42.83;22.65;;;-0.20;99.90;;;;;;4966340;28;20047;-63
2024/01/10 09:10:09;;;;;;;55.47;27.08;;;-0.20;99.90;;;;;;4966416;28;20069;-69
2024/01/10 09:12:35;;;;;;;43.70;22.58;;;-0.30;99.90;;;;;;4967630;28;20042;-64
2024/01/10 09:15:01;;;;;;;60.17;37.45;;;-0.20;99.90;;;;;;4971788;28;20497;-63
2024/01/10 09:17:27;;;;;;;44.45;26.20;;;-0.10;99.90;;;;;;4965338;28;20084;-63
2024/01/10 09:19:53;;;;;;;29.95;18.65;;;-0.20;99.90;;;;;;4962973;28;20049;-63
2024/01/10 09:22:19;;;;;;;19.42;10.75;;;-0.10;99.90;;;;;;4961608;28;20053;-63
2024/01/10 09:24:45;;;;;;;15.40;9.63;;;0.00;99.90;;;;;;4962814;28;20023;-69
2024/01/10 09:27:11;;;;;;;12.13;7.88;;;0.00;99.90;;;;;;4962298;28;20128;-69
2024/01/10 09:29:37;;;;;;;9.73;6.28;;;0.10;99.90;;;;;;4962545;28;20140;-70
2024/01/10 09:32:03;;;;;;;10.25;6.13;;;0.10;99.90;;;;;;4968829;28;20113;-69
2024/01/10 09:34:29;;;;;;;12.43;5.22;;;0.20;99.90;;;;;;4969095;28;20034;-70
2024/01/10 09:36:55;;;;;;;9.20;5.53;;;0.30;99.90;;;;;;4968474;28;20042;-69
2024/01/10 09:39:20;;;;;;;8.43;5.18;;;0.30;99.90;;;;;;4968962;28;20213;-70
2024/01/10 09:41:48;;;;;;;8.00;4.63;;;0.20;99.90;;;;;;4968144;28;20108;-63
2024/01/10 09:44:15;;;;;;;7.63;4.40;;;0.20;99.90;;;;;;4965304;28;20022;-62
2024/01/10 09:46:43;;;;;;;9.75;5.13;;;0.10;99.90;;;;;;4972364;28;20040;-63
2024/01/10 09:49:09;;;;;;;7.70;4.57;;;0.20;99.90;;;;;;4964720;28;20412;-63
2024/01/10 09:51:34;;;;;;;10.20;5.47;;;0.30;99.90;;;;;;4968734;28;20034;-63
2024/01/10 09:54:03;;;;;;;8.63;4.82;;;0.20;99.90;;;;;;4964470;28;20106;-63
2024/01/10 09:56:30;;;;;;;6.45;4.18;;;0.20;99.90;;;;;;4952152;28;20030;-63
2024/01/10 09:58:58;;;;;;;7.22;4.60;;;0.20;99.90;;;;;;4970252;28;20030;-63
2024/01/10 10:01:24;;;;;;;8.23;4.45;;;0.10;99.90;;;;;;4969837;28;20027;-70
2024/01/10 10:03:50;;;;;;;8.40;5.20;;;0.10;99.90;;;;;;4969219;28;20030;-70
2024/01/10 10:06:16;;;;;;;10.77;5.53;;;0.10;99.90;;;;;;4968519;28;20039;-69
2024/01/10 10:08:42;;;;;;;11.43;5.57;;;0.20;99.90;;;;;;4969978;28;20042;-70
2024/01/10 10:11:13;;;;;;;12.20;6.18;;;0.20;99.90;;;;;;4973271;28;20030;-70
2024/01/10 10:13:41;;;;;;;10.23;6.30;;;0.10;99.90;;;;;;4970309;28;20037;-70
2024/01/10 10:16:12;;;;;;;11.35;6.07;;;0.20;99.90;;;;;;4972924;28;20037;-70
2024/01/10 10:18:39;;;;;;;9.67;6.00;;;0.20;99.90;;;;;;4973840;28;20029;-69
2024/01/10 10:21:12;;;;;;;9.60;6.13;;;0.30;99.90;;;;;;4974211;28;20326;-70
2024/01/10 10:23:43;;;;;;;11.40;6.63;;;0.40;99.90;;;;;;4970260;28;20387;-70
2024/01/10 10:26:18;;;;;;;14.45;7.00;;;0.40;99.90;;;;;;4970322;28;20043;-70
2024/01/10 10:28:44;;;;;;;16.20;7.63;;;0.60;99.90;;;;;;4970410;28;20030;-69
2024/01/10 10:31:10;;;;;;;16.45;9.73;;;0.70;99.90;;;;;;4970389;28;20066;-70
2024/01/10 10:33:37;;;;;;;18.60;10.23;;;0.80;99.90;;;;;;4972074;28;20030;-70
2024/01/10 10:36:03;;;;;;;14.75;9.43;;;0.80;99.00;;;;;;4974382;28;20081;-70
2024/01/10 10:38:29;;;;;;;17.42;10.27;;;0.80;98.60;;;;;;4966348;28;20121;-63
2024/01/10 10:40:55;;;;;;;18.23;10.32;;;0.90;98.40;;;;;;4970824;28;20041;-63
2024/01/10 10:43:21;;;;;;;17.38;10.02;;;1.00;95.90;;;;;;4969123;28;20379;-62
2024/01/10 10:45:49;;;;;;;13.15;7.57;;;1.00;97.00;;;;;;4955934;28;20034;-63
2024/01/10 10:48:22;;;;;;;12.00;6.95;;;1.20;96.50;;;;;;4970510;28;20030;-63
2024/01/10 10:51:10;;;;;;;11.50;6.45;;;1.30;95.80;;;;;;4968253;28;20031;-63
2024/01/10 10:53:37;;;;;;;11.40;7.20;;;1.50;95.00;;;;;;4966711;28;20030;-61
2024/01/10 10:56:05;;;;;;;12.90;6.75;;;1.60;93.50;;;;;;4964574;28;20030;-63
2024/01/10 10:58:35;;;;;;;9.80;5.88;;;1.60;93.20;;;;;;4966092;28;20519;-63
2024/01/10 11:01:05;;;;;;;11.27;7.05;;;1.70;92.60;;;;;;4965892;28;21196;-63
2024/01/10 11:03:32;;;;;;;11.27;7.13;;;1.80;91.30;;;;;;4968812;28;20042;-63
2024/01/10 11:06:00;;;;;;;12.57;6.70;;;1.90;93.00;;;;;;4970543;28;20038;-63
2024/01/10 11:08:27;;;;;;;8.02;4.80;;;2.00;93.00;;;;;;4960287;28;20057;-63
2024/01/10 11:10:54;;;;;;;16.33;9.70;;;2.10;91.40;;;;;;4969136;28;20436;-63
2024/01/10 11:13:37;;;;;;;9.57;5.55;;;2.20;91.60;;;;;;4967058;28;20034;-63
2024/01/10 11:16:48;;;;;;;10.63;6.57;;;2.30;93.00;;;;;;4966626;28;20042;-63
2024/01/10 11:19:51;;;;;;;10.77;5.85;;;2.20;94.20;;;;;;4956184;28;20146;-63
2024/01/10 11:22:50;;;;;;;10.27;5.97;;;2.30;95.30;;;;;;4968704;28;20113;-63
2024/01/10 11:25:17;;;;;;;6.40;4.50;;;2.30;94.60;;;;;;4969660;28;20030;-63
2024/01/10 11:27:43;;;;;;;8.93;5.03;;;2.40;94.00;;;;;;4968910;28;20038;-63
2024/01/10 11:30:11;;;;;;;11.00;6.47;;;2.40;93.00;;;;;;4967573;28;20803;-70
2024/01/10 11:32:37;;;;;;;7.20;4.85;;;2.40;93.10;;;;;;4953454;28;20095;-70
2024/01/10 11:35:18;;;;;;;9.70;6.03;;;2.40;93.80;;;;;;4964384;28;20638;-69
2024/01/10 11:37:45;;;;;;;8.77;4.80;;;2.40;93.70;;;;;;4954151;28;20121;-69
2024/01/10 11:40:12;;;;;;;9.30;5.97;;;2.50;92.70;;;;;;4955766;28;20077;-68
2024/01/10 11:42:48;;;;;;;10.23;5.25;;;2.50;92.40;;;;;;4968055;28;20060;-69
2024/01/10 11:45:34;;;;;;;8.75;5.82;;;2.50;92.40;;;;;;4970254;28;20026;-69
2024/01/10 11:48:00;;;;;;;8.45;5.22;;;2.60;92.90;;;;;;4963204;28;20046;-69
2024/01/10 11:50:26;;;;;;;10.88;8.55;;;2.60;92.60;;;;;;4970118;28;20728;-63
2024/01/10 11:52:55;;;;;;;7.20;5.30;;;2.60;91.60;;;;;;4973405;28;20038;-63
2024/01/10 11:55:51;;;;;;;10.77;4.70;;;2.70;91.70;;;;;;4975184;28;20486;-62
2024/01/10 11:58:17;;;;;;;9.63;5.03;;;2.80;91.60;;;;;;4975326;28;21283;-63
2024/01/10 12:00:43;;;;;;;7.88;5.05;;;2.80;90.90;;;;;;4973622;28;20320;-63
2024/01/10 12:03:14;;;;;;;7.30;4.80;;;2.80;91.20;;;;;;4994264;28;20279;-63
2024/01/10 12:05:40;;;;;;;9.18;5.40;;;2.80;91.20;;;;;;4987526;28;20117;-63
2024/01/10 12:08:08;;;;;;;6.55;4.40;;;2.90;91.20;;;;;;4984040;28;20414;-63
2024/01/10 12:10:37;;;;;;;8.60;5.20;;;2.90;90.70;;;;;;4968442;28;20510;-63
2024/01/10 12:13:03;;;;;;;8.52;5.03;;;2.90;90.10;;;;;;4975901;28;20299;-63
2024/01/10 12:15:29;;;;;;;8.80;4.90;;;2.90;90.60;;;;;;4973836;28;20042;-63
2024/01/10 12:17:55;;;;;;;6.75;4.55;;;3.00;90.30;;;;;;4974312;28;20597;-63
2024/01/10 12:20:21;;;;;;;8.07;5.10;;;3.00;89.10;;;;;;4971257;28;20073;-63
2024/01/10 12:22:47;;;;;;;6.85;4.20;;;3.10;88.10;;;;;;4974394;28;20459;-63
2024/01/10 12:25:13;;;;;;;14.68;4.57;;;3.10;87.60;;;;;;4973713;28;20157;-63
2024/01/10 12:27:39;;;;;;;9.05;4.88;;;3.10;88.30;;;;;;4971649;28;20124;-70
2024/01/10 12:30:05;;;;;;;8.60;4.88;;;3.20;88.60;;;;;;4973941;28;20026;-69
2024/01/10 12:32:31;;;;;;;6.85;4.13;;;3.20;88.90;;;;;;4970555;28;20129;-69
2024/01/10 12:35:04;;;;;;;7.90;4.80;;;3.20;86.90;;;;;;4971846;28;20022;-69
2024/01/10 12:37:33;;;;;;;7.63;4.28;;;3.30;85.50;;;;;;4972016;28;20064;-69
2024/01/10 12:39:59;;;;;;;7.38;4.75;;;3.30;84.20;;;;;;4976535;28;20026;-69